createdAt,value
2022-12-03T00:00:12.791Z,14.80
2022-12-03T00:03:06.224Z,13.10
2022-12-03T00:05:41.832Z,18.90
2022-12-03T00:08:20.902Z,19.10
2022-12-03T00:10:53.591Z,17.30
2022-12-03T00:13:26.312Z,13.00
2022-12-03T00:15:59.134Z,17.30
2022-12-03T00:18:31.938Z,16.70
2022-12-03T00:21:04.856Z,19.10
2022-12-03T00:23:42.008Z,15.60
2022-12-03T00:26:15.201Z,19.40
2022-12-03T00:28:48.311Z,16.30
2022-12-03T00:31:23.569Z,18.30
2022-12-03T00:33:56.688Z,19.70
2022-12-03T00:36:29.509Z,20.00
2022-12-03T00:39:02.369Z,17.60
2022-12-03T00:41:35.084Z,17.60
2022-12-03T00:44:08.099Z,16.70
2022-12-03T00:46:40.832Z,17.10
2022-12-03T00:49:13.780Z,17.00
2022-12-03T00:51:46.530Z,10.30
2022-12-03T00:54:19.272Z,18.50
2022-12-03T00:56:51.934Z,16.10
2022-12-03T00:59:24.762Z,12.80
2022-12-03T01:01:57.683Z,14.20
2022-12-03T01:04:30.515Z,17.80
2022-12-03T01:07:03.482Z,14.60
2022-12-03T01:09:36.396Z,17.40
2022-12-03T01:12:09.355Z,17.70
2022-12-03T01:14:42.271Z,14.20
2022-12-03T01:17:15.041Z,19.00
2022-12-03T01:19:48.609Z,14.50
2022-12-03T01:22:21.479Z,13.10
2022-12-03T01:24:54.331Z,16.50
2022-12-03T01:27:28.008Z,17.00
2022-12-03T01:30:00.796Z,18.50
2022-12-03T01:32:33.501Z,14.90
2022-12-03T01:35:07.378Z,19.10
2022-12-03T01:37:40.175Z,18.30
2022-12-03T01:40:20.685Z,17.40
2022-12-03T01:45:26.709Z,10.90
2022-12-03T01:47:59.682Z,13.10
2022-12-03T01:50:35.964Z,7.40
2022-12-03T01:53:11.819Z,11.20
2022-12-03T01:55:48.636Z,14.10
2022-12-03T01:58:31.253Z,18.20
2022-12-03T02:01:08.210Z,13.80
2022-12-03T02:03:41.433Z,15.80
2022-12-03T02:06:19.183Z,16.90
2022-12-03T02:08:59.060Z,14.50
2022-12-03T02:11:36.170Z,15.60
2022-12-03T02:14:15.174Z,13.70
2022-12-03T02:16:48.105Z,17.70
2022-12-03T02:19:26.281Z,16.40
2022-12-03T02:22:12.675Z,14.90
2022-12-03T02:24:53.317Z,13.80
2022-12-03T02:27:26.630Z,12.00
2022-12-03T02:29:59.675Z,10.90
2022-12-03T02:32:32.591Z,13.80
2022-12-03T02:35:05.708Z,13.10
2022-12-03T02:37:39.852Z,14.40
2022-12-03T02:40:18.468Z,17.10
2022-12-03T02:42:54.745Z,10.60
2022-12-03T02:45:31.063Z,15.40
2022-12-03T02:48:07.929Z,13.60
2022-12-03T02:50:47.026Z,8.20
2022-12-03T02:53:23.631Z,12.30
2022-12-03T02:55:59.258Z,12.80
2022-12-03T02:58:34.294Z,15.70
2022-12-03T03:01:09.202Z,14.60
2022-12-03T03:03:42.724Z,12.70
2022-12-03T03:06:16.071Z,14.70
2022-12-03T03:08:49.478Z,16.20
2022-12-03T03:11:22.186Z,11.50
2022-12-03T03:13:54.969Z,12.30
2022-12-03T03:16:28.147Z,15.10
2022-12-03T03:19:01.109Z,14.80
2022-12-03T03:21:33.887Z,15.90
2022-12-03T03:24:07.457Z,12.70
2022-12-03T03:26:40.206Z,16.40
2022-12-03T03:29:13.103Z,12.20
2022-12-03T03:31:47.143Z,14.00
2022-12-03T03:34:20.056Z,14.70
2022-12-03T03:36:52.829Z,15.80
2022-12-03T03:39:26.037Z,9.60
2022-12-03T03:41:58.730Z,13.60
2022-12-03T03:44:32.953Z,14.40
2022-12-03T03:47:05.944Z,13.90
2022-12-03T03:49:38.928Z,12.00
2022-12-03T03:52:13.576Z,15.50
2022-12-03T03:54:46.423Z,11.20
2022-12-03T03:57:19.187Z,17.40
2022-12-03T03:59:51.803Z,15.70
2022-12-03T04:02:28.474Z,15.50
2022-12-03T04:05:01.610Z,12.80
2022-12-03T04:07:34.581Z,15.80
2022-12-03T04:10:38.817Z,13.50
2022-12-03T04:13:12.084Z,15.60
2022-12-03T04:15:44.788Z,15.30
2022-12-03T04:18:34.852Z,15.70
2022-12-03T04:21:24.854Z,10.50
2022-12-03T04:23:57.658Z,10.60
2022-12-03T04:26:47.825Z,12.20
2022-12-03T04:29:23.998Z,15.90
2022-12-03T04:32:14.208Z,13.10
2022-12-03T04:35:04.475Z,12.60
2022-12-03T04:37:37.298Z,12.80
2022-12-03T04:40:26.218Z,16.20
2022-12-03T04:42:58.887Z,11.00
2022-12-03T04:45:31.650Z,18.00
2022-12-03T04:48:04.660Z,13.40
2022-12-03T04:50:37.509Z,12.10
2022-12-03T04:53:11.181Z,14.30
2022-12-03T04:55:43.932Z,16.40
2022-12-03T04:58:16.631Z,13.40
2022-12-03T05:00:49.323Z,13.20
2022-12-03T05:03:22.009Z,15.60
2022-12-03T05:05:54.730Z,12.10
2022-12-03T05:08:27.370Z,15.40
2022-12-03T05:11:00.014Z,16.00
2022-12-03T05:13:32.673Z,14.60
2022-12-03T05:16:05.485Z,15.20
2022-12-03T05:18:38.224Z,12.50
2022-12-03T05:21:11.161Z,15.20
2022-12-03T05:23:44.959Z,18.50
2022-12-03T05:26:17.591Z,18.00
2022-12-03T05:28:50.282Z,16.20
2022-12-03T05:31:23.067Z,15.60
2022-12-03T05:33:56.017Z,14.70
2022-12-03T05:36:28.637Z,15.00
2022-12-03T05:39:01.265Z,14.80
2022-12-03T05:41:51.538Z,16.70
2022-12-03T05:44:24.214Z,16.10
2022-12-03T05:46:56.938Z,16.90
2022-12-03T05:49:29.624Z,14.70
2022-12-03T05:52:02.311Z,16.70
2022-12-03T05:54:35.105Z,16.70
2022-12-03T05:57:08.304Z,13.50
2022-12-03T05:59:41.004Z,14.80
2022-12-03T06:02:13.743Z,15.70
2022-12-03T06:04:46.767Z,17.70
2022-12-03T06:07:19.568Z,16.00
2022-12-03T06:09:52.293Z,16.80
2022-12-03T06:12:25.060Z,16.90
2022-12-03T06:14:57.827Z,14.30
2022-12-03T06:17:30.746Z,17.10
2022-12-03T06:20:03.692Z,16.50
2022-12-03T06:22:36.502Z,15.40
2022-12-03T06:25:11.409Z,17.20
2022-12-03T06:27:44.360Z,16.10
2022-12-03T06:30:18.048Z,14.00
2022-12-03T06:32:50.781Z,14.50
2022-12-03T06:35:23.539Z,14.00
2022-12-03T06:37:56.368Z,14.90
2022-12-03T06:40:29.128Z,15.10
2022-12-03T06:43:01.996Z,17.80
2022-12-03T06:45:35.940Z,16.20
2022-12-03T06:48:09.730Z,16.20
2022-12-03T06:50:42.392Z,16.50
2022-12-03T06:53:15.197Z,15.40
2022-12-03T06:55:47.897Z,14.30
2022-12-03T06:58:20.605Z,13.10
2022-12-03T07:00:53.363Z,16.30
2022-12-03T07:03:26.120Z,14.70
2022-12-03T07:05:58.936Z,16.30
2022-12-03T07:08:31.673Z,14.80
2022-12-03T07:11:04.402Z,16.40
2022-12-03T07:13:37.119Z,14.70
2022-12-03T07:16:10.635Z,15.70
2022-12-03T07:18:43.295Z,15.00
2022-12-03T07:21:16.041Z,15.60
2022-12-03T07:23:48.824Z,14.40
2022-12-03T07:26:21.500Z,14.80
2022-12-03T07:28:54.247Z,14.90
2022-12-03T07:31:27.262Z,13.10
2022-12-03T07:34:00.977Z,15.80
2022-12-03T07:36:33.771Z,16.30
2022-12-03T07:39:06.805Z,15.80
2022-12-03T07:41:39.517Z,16.80
2022-12-03T07:44:14.769Z,19.40
2022-12-03T07:46:47.965Z,17.60
2022-12-03T07:49:20.898Z,12.90
2022-12-03T07:51:54.948Z,19.30
2022-12-03T07:54:27.794Z,35.00
2022-12-03T07:57:01.845Z,34.20
2022-12-03T07:59:34.832Z,33.90
2022-12-03T08:02:07.653Z,26.70
2022-12-03T08:04:40.456Z,23.70
2022-12-03T08:07:13.229Z,21.00
2022-12-03T08:09:46.069Z,28.10
2022-12-03T08:12:23.839Z,22.60
2022-12-03T08:14:57.318Z,18.40
2022-12-03T08:17:30.769Z,17.80
2022-12-03T08:20:03.479Z,15.00
2022-12-03T08:22:36.273Z,16.40
2022-12-03T08:25:26.571Z,17.80
2022-12-03T08:28:13.528Z,14.10
2022-12-03T08:30:50.518Z,13.10
2022-12-03T08:33:29.691Z,15.10
2022-12-03T08:36:07.450Z,17.90
2022-12-03T08:38:40.178Z,16.80
2022-12-03T08:41:37.638Z,12.30
2022-12-03T08:44:27.303Z,15.80
2022-12-03T08:47:08.488Z,17.30
2022-12-03T08:49:41.769Z,16.80
2022-12-03T08:52:20.331Z,14.40
2022-12-03T08:54:57.354Z,17.70
2022-12-03T08:57:32.866Z,17.20
2022-12-03T09:00:20.642Z,15.30
2022-12-03T09:02:55.782Z,14.50
2022-12-03T09:05:33.629Z,19.00
2022-12-03T09:08:06.524Z,14.70
2022-12-03T09:10:39.497Z,13.10
2022-12-03T09:13:12.443Z,14.50
2022-12-03T09:15:45.286Z,16.50
2022-12-03T09:18:18.874Z,17.90
2022-12-03T09:20:51.558Z,18.10
2022-12-03T09:23:24.353Z,19.40
2022-12-03T09:25:57.214Z,21.00
2022-12-03T09:28:30.121Z,20.10
2022-12-03T09:31:04.756Z,19.80
2022-12-03T09:33:37.594Z,19.60
2022-12-03T09:36:11.050Z,20.30
2022-12-03T09:38:47.638Z,20.60
2022-12-03T09:41:21.079Z,18.00
2022-12-03T09:44:15.813Z,22.50
2022-12-03T09:46:49.352Z,19.40
2022-12-03T09:49:22.333Z,21.50
2022-12-03T09:51:58.884Z,20.60
2022-12-03T09:54:33.616Z,20.00
2022-12-03T09:57:08.224Z,20.20
2022-12-03T09:59:41.170Z,21.20
2022-12-03T10:02:21.335Z,23.60
2022-12-03T10:04:55.555Z,21.90
2022-12-03T10:07:28.996Z,21.80
2022-12-03T10:10:01.859Z,20.30
2022-12-03T10:12:35.694Z,19.90
2022-12-03T10:15:12.964Z,26.50
2022-12-03T10:17:47.010Z,20.00
2022-12-03T10:20:23.612Z,22.40
2022-12-03T10:22:56.463Z,22.10
2022-12-03T10:25:29.339Z,18.10
2022-12-03T10:28:05.483Z,18.50
2022-12-03T10:30:38.318Z,22.10
2022-12-03T10:33:19.302Z,21.70
2022-12-03T10:35:52.435Z,23.40
2022-12-03T10:38:26.748Z,19.50
2022-12-03T10:41:01.168Z,19.50
2022-12-03T10:43:34.072Z,22.30
2022-12-03T10:46:21.035Z,20.00
2022-12-03T10:51:50.732Z,22.30
2022-12-03T10:54:26.315Z,19.70
2022-12-03T10:56:59.343Z,19.30
2022-12-03T10:59:35.400Z,20.60
2022-12-03T11:02:21.172Z,20.50
2022-12-03T11:04:55.115Z,24.40
2022-12-03T11:07:28.430Z,22.40
2022-12-03T11:10:02.918Z,21.20
2022-12-03T11:12:35.844Z,19.50
2022-12-03T11:15:39.582Z,20.50
2022-12-03T11:18:12.335Z,22.40
2022-12-03T11:21:15.243Z,20.40
2022-12-03T11:24:23.612Z,19.30
2022-12-03T11:27:28.915Z,16.70
2022-12-03T11:30:05.763Z,20.40
2022-12-03T11:33:21.840Z,18.70
2022-12-03T11:36:16.133Z,20.10
2022-12-03T11:38:56.405Z,21.80
2022-12-03T11:41:35.930Z,17.90
2022-12-03T11:44:37.030Z,21.10
2022-12-03T11:47:19.356Z,21.00
2022-12-03T11:49:52.745Z,20.50
2022-12-03T11:52:40.817Z,19.00
2022-12-03T11:55:28.419Z,20.00
2022-12-03T11:58:04.359Z,19.90
2022-12-03T12:00:37.202Z,20.60
2022-12-03T12:03:24.605Z,22.20
2022-12-03T12:06:10.380Z,20.60
2022-12-03T12:08:56.237Z,23.70
2022-12-03T12:11:34.147Z,21.80
2022-12-03T12:14:08.053Z,21.70
2022-12-03T12:16:58.576Z,19.70
2022-12-03T12:19:43.973Z,21.90
2022-12-03T12:22:33.965Z,21.60
2022-12-03T12:25:21.402Z,22.30
2022-12-03T12:27:55.259Z,23.50
2022-12-03T12:30:28.088Z,22.20
2022-12-03T12:33:19.311Z,19.50
2022-12-03T12:35:52.179Z,19.90
2022-12-03T12:38:25.524Z,21.70
2022-12-03T12:40:58.418Z,21.70
2022-12-03T12:43:33.892Z,22.00
2022-12-03T12:46:46.500Z,22.40
2022-12-03T12:49:13.620Z,22.70
2022-12-03T12:51:49.847Z,21.50
2022-12-03T12:54:22.777Z,21.30
2022-12-03T12:56:55.548Z,19.10
2022-12-03T12:59:30.123Z,21.90
2022-12-03T13:02:08.552Z,20.10
2022-12-03T13:04:42.961Z,22.90
2022-12-03T13:07:15.758Z,22.20
2022-12-03T13:09:54.809Z,20.90
2022-12-03T13:12:28.120Z,20.70
2022-12-03T13:15:04.078Z,21.10
2022-12-03T13:17:36.853Z,22.30
2022-12-03T13:20:21.971Z,23.80
2022-12-03T13:22:58.377Z,21.70
2022-12-03T13:26:00.225Z,21.40
2022-12-03T13:28:33.923Z,19.30
2022-12-03T13:31:23.262Z,19.90
2022-12-03T13:33:57.903Z,21.80
2022-12-03T13:36:40.617Z,20.60
2022-12-03T13:39:24.673Z,24.00
2022-12-03T13:42:30.105Z,21.40
2022-12-03T13:45:07.850Z,22.20
2022-12-03T13:47:41.281Z,24.10
2022-12-03T13:50:30.100Z,21.90
2022-12-03T13:53:03.522Z,21.50
2022-12-03T13:55:36.940Z,23.60
2022-12-03T13:58:09.892Z,20.90
2022-12-03T14:00:43.366Z,22.20
2022-12-03T14:03:16.126Z,23.40
2022-12-03T14:05:48.826Z,21.10
2022-12-03T14:08:22.059Z,22.30
2022-12-03T14:11:00.155Z,25.40
2022-12-03T14:13:33.585Z,22.80
2022-12-03T14:16:06.833Z,24.20
2022-12-03T14:18:40.274Z,19.80
2022-12-03T14:21:12.935Z,24.30
2022-12-03T14:23:45.654Z,25.70
2022-12-03T14:26:18.434Z,24.60
2022-12-03T14:28:51.103Z,26.90
2022-12-03T14:31:24.051Z,23.50
2022-12-03T14:33:56.828Z,21.30
2022-12-03T14:36:29.573Z,19.20
2022-12-03T14:39:02.313Z,28.00
2022-12-03T14:41:52.736Z,27.00
2022-12-03T14:44:25.534Z,24.00
2022-12-03T14:46:58.315Z,26.70
2022-12-03T14:49:31.041Z,23.30
2022-12-03T14:52:08.630Z,31.20
2022-12-03T14:54:45.252Z,25.50
2022-12-03T14:57:18.676Z,25.00
2022-12-03T14:59:51.558Z,24.60
2022-12-03T15:02:24.435Z,26.70
2022-12-03T15:04:57.315Z,27.30
2022-12-03T15:07:32.041Z,25.50
2022-12-03T15:10:05.162Z,22.10
2022-12-03T15:12:37.891Z,27.10
2022-12-03T15:15:12.945Z,24.80
2022-12-03T15:17:45.928Z,27.20
2022-12-03T15:20:19.204Z,24.70
2022-12-03T15:22:51.884Z,25.20
2022-12-03T15:25:25.739Z,28.20
2022-12-03T15:27:58.598Z,27.70
2022-12-03T15:30:32.180Z,30.10
2022-12-03T15:33:05.085Z,28.30
2022-12-03T15:35:37.833Z,26.60
2022-12-03T15:38:10.664Z,28.60
2022-12-03T15:40:43.496Z,22.70
2022-12-03T15:43:16.285Z,34.20
2022-12-03T15:45:49.188Z,27.80
2022-12-03T15:48:21.912Z,32.50
2022-12-03T15:50:54.681Z,32.50
2022-12-03T15:53:27.433Z,30.70
2022-12-03T15:56:00.215Z,31.00
2022-12-03T15:58:33.053Z,31.60
2022-12-03T16:01:05.902Z,29.20
2022-12-03T16:03:38.941Z,31.20
2022-12-03T16:06:12.782Z,27.70
2022-12-03T16:08:45.588Z,31.30
2022-12-03T16:11:18.322Z,28.70
2022-12-03T16:13:51.079Z,31.20
2022-12-03T16:16:24.149Z,31.40
2022-12-03T16:18:56.991Z,28.90
2022-12-03T16:21:30.257Z,31.70
2022-12-03T16:24:03.177Z,31.90
2022-12-03T16:26:35.949Z,30.40
2022-12-03T16:29:08.723Z,20.00
2022-12-03T16:31:41.480Z,30.30
2022-12-03T16:34:14.294Z,28.90
2022-12-03T16:36:47.076Z,33.50
2022-12-03T16:39:20.856Z,27.20
2022-12-03T16:41:53.572Z,30.20
2022-12-03T16:44:33.731Z,29.20
2022-12-03T16:47:06.562Z,30.90
2022-12-03T16:49:39.564Z,30.10
2022-12-03T16:52:12.483Z,30.20
2022-12-03T16:54:45.241Z,30.30
2022-12-03T16:57:18.218Z,31.60
2022-12-03T16:59:51.083Z,30.90
2022-12-03T17:02:24.202Z,32.00
2022-12-03T17:04:57.554Z,34.40
2022-12-03T17:07:31.023Z,30.50
2022-12-03T17:10:03.844Z,32.40
2022-12-03T17:13:07.716Z,40.30
2022-12-03T17:15:31.653Z,31.50
2022-12-03T17:18:04.773Z,27.50
2022-12-03T17:20:38.103Z,30.70
2022-12-03T17:23:12.055Z,36.60
2022-12-03T17:25:44.829Z,29.00
2022-12-03T17:28:17.548Z,31.70
2022-12-03T17:30:50.359Z,34.60
2022-12-03T17:33:23.159Z,31.40
2022-12-03T17:35:55.957Z,36.60
2022-12-03T17:38:58.862Z,31.10
2022-12-03T17:41:31.747Z,30.70
2022-12-03T17:44:10.229Z,32.00
2022-12-03T17:46:44.360Z,31.50
2022-12-03T17:49:17.351Z,31.50
2022-12-03T17:51:58.960Z,28.30
2022-12-03T17:54:55.200Z,33.50
2022-12-03T17:57:25.117Z,32.40
2022-12-03T17:59:57.965Z,32.20
2022-12-03T18:02:30.858Z,34.40
2022-12-03T18:05:03.941Z,31.30
2022-12-03T18:07:36.858Z,27.60
2022-12-03T18:10:11.447Z,28.00
2022-12-03T18:12:44.379Z,30.80
2022-12-03T18:15:17.778Z,29.90
2022-12-03T18:17:51.994Z,31.10
2022-12-03T18:20:25.135Z,32.40
2022-12-03T18:23:00.513Z,36.10
2022-12-03T18:25:35.926Z,33.30
2022-12-03T18:28:09.273Z,33.10
2022-12-03T18:30:45.123Z,28.50
2022-12-03T18:33:24.601Z,36.90
2022-12-03T18:35:59.885Z,35.10
2022-12-03T18:38:35.499Z,34.10
2022-12-03T18:41:08.823Z,36.20
2022-12-03T18:43:57.880Z,37.00
2022-12-03T18:46:52.414Z,32.60
2022-12-03T18:49:24.842Z,32.40
2022-12-03T18:51:59.899Z,34.70
2022-12-03T18:54:32.881Z,34.80
2022-12-03T18:57:06.036Z,29.60
2022-12-03T18:59:39.363Z,31.50
2022-12-03T19:02:32.477Z,34.00
2022-12-03T19:05:11.834Z,29.00
2022-12-03T19:07:44.858Z,36.70
2022-12-03T19:10:17.819Z,38.00
2022-12-03T19:12:51.260Z,37.50
2022-12-03T19:15:24.301Z,34.70
2022-12-03T19:17:57.068Z,38.00
2022-12-03T19:20:47.491Z,34.40
2022-12-03T19:23:20.379Z,33.00
2022-12-03T19:26:03.276Z,33.40
2022-12-03T19:28:36.727Z,33.60
2022-12-03T19:31:12.525Z,29.30
2022-12-03T19:33:45.967Z,31.20
2022-12-03T19:36:26.592Z,33.40
2022-12-03T19:39:01.608Z,34.60
2022-12-03T19:41:34.557Z,39.80
2022-12-03T19:44:10.929Z,37.40
2022-12-03T19:46:44.735Z,37.30
2022-12-03T19:49:18.780Z,31.10
2022-12-03T19:51:53.032Z,27.10
2022-12-03T19:54:26.294Z,26.80
2022-12-03T19:56:59.316Z,32.30
2022-12-03T19:59:32.303Z,31.70
2022-12-03T20:02:05.297Z,31.80
2022-12-03T20:04:38.616Z,35.00
2022-12-03T20:07:11.461Z,35.40
2022-12-03T20:09:44.584Z,34.90
2022-12-03T20:12:17.420Z,33.60
2022-12-03T20:14:51.846Z,31.30
2022-12-03T20:17:24.743Z,31.20
2022-12-03T20:19:57.800Z,32.40
2022-12-03T20:22:31.064Z,32.60
2022-12-03T20:25:05.235Z,29.80
2022-12-03T20:27:38.936Z,35.00
2022-12-03T20:30:13.951Z,31.20
2022-12-03T20:32:46.977Z,32.80
2022-12-03T20:35:20.105Z,33.80
2022-12-03T20:37:53.211Z,34.90
2022-12-03T20:40:26.058Z,34.40
2022-12-03T20:42:58.878Z,32.50
2022-12-03T20:45:31.802Z,31.70
2022-12-03T20:48:05.137Z,31.30
2022-12-03T20:50:40.521Z,30.90
2022-12-03T20:53:27.934Z,31.10
2022-12-03T20:56:03.062Z,32.30
2022-12-03T20:58:38.254Z,32.20
2022-12-03T21:01:16.708Z,28.40
2022-12-03T21:03:51.299Z,36.20
2022-12-03T21:06:25.567Z,32.50
2022-12-03T21:09:00.878Z,32.50
2022-12-03T21:11:36.124Z,29.00
2022-12-03T21:14:23.278Z,32.60
2022-12-03T21:17:11.916Z,31.80
2022-12-03T21:19:44.867Z,29.40
2022-12-03T21:27:56.150Z,31.70
2022-12-03T21:30:29.021Z,35.10
2022-12-03T21:33:02.026Z,33.30
2022-12-03T21:35:37.380Z,30.70
2022-12-03T21:38:11.137Z,30.90
2022-12-03T21:40:43.996Z,33.20
2022-12-03T21:43:18.013Z,29.10
2022-12-03T21:45:51.151Z,29.30
2022-12-03T21:48:24.081Z,31.00
2022-12-03T21:51:05.984Z,31.80
2022-12-03T21:53:46.701Z,28.10
2022-12-03T21:56:21.658Z,29.60
2022-12-03T21:58:54.564Z,30.70
2022-12-03T22:01:28.364Z,27.70
2022-12-03T22:04:01.147Z,29.40
2022-12-03T22:06:34.032Z,31.60
2022-12-03T22:09:07.061Z,31.60
2022-12-03T22:11:42.159Z,30.40
2022-12-03T22:14:15.082Z,30.20
2022-12-03T22:16:47.994Z,32.20
2022-12-03T22:19:22.715Z,28.70
2022-12-03T22:21:55.541Z,31.60
2022-12-03T22:24:28.298Z,32.40
2022-12-03T22:27:02.175Z,30.10
2022-12-03T22:29:35.349Z,32.60
2022-12-03T22:32:08.360Z,22.60
2022-12-03T22:34:42.473Z,30.20
2022-12-03T22:37:15.338Z,29.10
2022-12-03T22:39:48.296Z,27.90
2022-12-03T22:42:21.068Z,28.40
2022-12-03T22:44:53.916Z,26.50
2022-12-03T22:47:26.777Z,33.70
2022-12-03T22:49:59.808Z,29.00
2022-12-03T22:52:32.873Z,22.20
2022-12-03T22:55:05.971Z,25.40
2022-12-03T22:57:39.066Z,21.60
2022-12-03T23:00:15.241Z,26.00
2022-12-03T23:02:48.111Z,30.90
2022-12-03T23:05:21.073Z,18.40
2022-12-03T23:07:55.227Z,29.10
2022-12-03T23:10:32.533Z,29.70
2022-12-03T23:13:07.775Z,27.00
2022-12-03T23:15:44.901Z,29.70
2022-12-03T23:18:17.910Z,30.30
2022-12-03T23:20:53.847Z,29.30
2022-12-03T23:23:29.675Z,29.40
2022-12-03T23:26:04.542Z,28.60
2022-12-03T23:28:41.200Z,34.80
2022-12-03T23:31:23.580Z,24.40
2022-12-03T23:33:57.456Z,28.70
2022-12-03T23:36:33.888Z,28.00
2022-12-03T23:39:06.898Z,29.20
2022-12-03T23:41:41.077Z,28.30
2022-12-03T23:44:13.874Z,28.50
2022-12-03T23:46:46.765Z,27.90
2022-12-03T23:49:19.757Z,28.50
2022-12-03T23:51:52.569Z,30.70
2022-12-03T23:54:25.703Z,29.30
2022-12-03T23:56:58.489Z,28.70
2022-12-03T23:59:31.469Z,28.70
